Auburndale, Florida
Current Conditions -  °F | °C
As of 5:31 AM on Monday 26 Jan 2015 (Local Time) from KGIF Reporting Station
Light Rain Light Rain  
Wind Chill: 57°   Ceiling: 4100
Heat Index: 57°   Visibility: 3mi
Dew Point: 54°   Wind: 9mph
Humidity: 89%   Direction: 200°SSW
Pressure: 29.85"   Gusts: NA
Location:  28.06°N, 81.78°W
Report Text: KGIF 261031Z AUTO 20008KT 3SM -RA BR FEW016 BKN041 OVC070 14/12 A2985 RMK AO2 RAB06 P0010 T01390122
Loading
Personal Weather Stations






























Interactive Weather Map New forecast layout! Learn more

10-Day Weather Forecast

Advertisements
Track Severe Weather on mobile